sensor_id;sensor_type;location;lat;lon;timestamp;temperature;humidity
72338;DHT22;60294;64.134;-21.862;2022-10-22T00:02:01;1.60;78.30
72338;DHT22;60294;64.134;-21.862;2022-10-22T00:04:26;1.40;77.80
72338;DHT22;60294;64.134;-21.862;2022-10-22T00:06:53;1.30;78.10
72338;DHT22;60294;64.134;-21.862;2022-10-22T00:09:18;1.10;78.30
72338;DHT22;60294;64.134;-21.862;2022-10-22T00:11:46;1.10;78.70
72338;DHT22;60294;64.134;-21.862;2022-10-22T00:14:12;1.10;78.60
72338;DHT22;60294;64.134;-21.862;2022-10-22T00:16:40;1.00;78.80
72338;DHT22;60294;64.134;-21.862;2022-10-22T00:19:05;1.00;79.00
72338;DHT22;60294;64.134;-21.862;2022-10-22T00:21:34;1.00;79.10
72338;DHT22;60294;64.134;-21.862;2022-10-22T00:24:03;1.00;79.10
72338;DHT22;60294;64.134;-21.862;2022-10-22T00:26:30;1.10;79.50
72338;DHT22;60294;64.134;-21.862;2022-10-22T00:28:56;1.10;79.10
72338;DHT22;60294;64.134;-21.862;2022-10-22T00:31:26;1.10;78.90
72338;DHT22;60294;64.134;-21.862;2022-10-22T00:33:53;1.20;78.70
72338;DHT22;60294;64.134;-21.862;2022-10-22T00:36:19;1.10;78.60
72338;DHT22;60294;64.134;-21.862;2022-10-22T00:38:45;1.20;78.50
72338;DHT22;60294;64.134;-21.862;2022-10-22T00:41:11;1.20;78.70
72338;DHT22;60294;64.134;-21.862;2022-10-22T00:44:03;1.20;78.20
72338;DHT22;60294;64.134;-21.862;2022-10-22T00:46:30;1.10;78.40
72338;DHT22;60294;64.134;-21.862;2022-10-22T00:48:58;1.00;78.30
72338;DHT22;60294;64.134;-21.862;2022-10-22T00:51:28;1.00;78.80
72338;DHT22;60294;64.134;-21.862;2022-10-22T00:54:02;1.00;79.20
72338;DHT22;60294;64.134;-21.862;2022-10-22T00:56:29;1.00;79.00
72338;DHT22;60294;64.134;-21.862;2022-10-22T00:58:58;1.00;79.00
72338;DHT22;60294;64.134;-21.862;2022-10-22T01:01:27;1.10;78.80
72338;DHT22;60294;64.134;-21.862;2022-10-22T01:03:55;1.00;78.50
72338;DHT22;60294;64.134;-21.862;2022-10-22T01:06:30;1.10;78.90
72338;DHT22;60294;64.134;-21.862;2022-10-22T01:09:29;1.00;78.20
72338;DHT22;60294;64.134;-21.862;2022-10-22T01:12:09;1.00;78.40
72338;DHT22;60294;64.134;-21.862;2022-10-22T01:17:30;1.10;78.60
72338;DHT22;60294;64.134;-21.862;2022-10-22T01:31:12;1.00;78.10
72338;DHT22;60294;64.134;-21.862;2022-10-22T01:33:39;0.90;78.40
72338;DHT22;60294;64.134;-21.862;2022-10-22T01:36:05;0.90;78.40
72338;DHT22;60294;64.134;-21.862;2022-10-22T01:38:33;1.00;78.40
72338;DHT22;60294;64.134;-21.862;2022-10-22T01:41:02;1.00;78.30
72338;DHT22;60294;64.134;-21.862;2022-10-22T01:43:28;0.90;78.20
72338;DHT22;60294;64.134;-21.862;2022-10-22T01:45:59;0.90;78.20
72338;DHT22;60294;64.134;-21.862;2022-10-22T01:51:06;0.90;78.50
72338;DHT22;60294;64.134;-21.862;2022-10-22T01:58:53;0.70;78.50
72338;DHT22;60294;64.134;-21.862;2022-10-22T02:04:39;0.70;79.00
72338;DHT22;60294;64.134;-21.862;2022-10-22T02:07:11;0.70;78.60
72338;DHT22;60294;64.134;-21.862;2022-10-22T02:09:38;0.60;78.90
72338;DHT22;60294;64.134;-21.862;2022-10-22T02:12:06;0.60;79.20
72338;DHT22;60294;64.134;-21.862;2022-10-22T02:14:35;0.60;79.10
72338;DHT22;60294;64.134;-21.862;2022-10-22T02:17:02;0.60;79.00
72338;DHT22;60294;64.134;-21.862;2022-10-22T02:21:57;0.50;79.00
72338;DHT22;60294;64.134;-21.862;2022-10-22T02:24:23;0.50;78.60
72338;DHT22;60294;64.134;-21.862;2022-10-22T02:27:11;0.60;78.80
72338;DHT22;60294;64.134;-21.862;2022-10-22T02:29:45;0.60;78.10
72338;DHT22;60294;64.134;-21.862;2022-10-22T02:32:17;0.70;78.20
72338;DHT22;60294;64.134;-21.862;2022-10-22T02:34:45;0.80;78.00
72338;DHT22;60294;64.134;-21.862;2022-10-22T02:37:12;0.60;77.30
72338;DHT22;60294;64.134;-21.862;2022-10-22T02:39:38;0.70;77.70
72338;DHT22;60294;64.134;-21.862;2022-10-22T02:42:05;0.80;77.90
72338;DHT22;60294;64.134;-21.862;2022-10-22T02:44:31;0.80;77.50
72338;DHT22;60294;64.134;-21.862;2022-10-22T02:46:57;0.70;77.70
72338;DHT22;60294;64.134;-21.862;2022-10-22T02:49:23;0.60;77.80
72338;DHT22;60294;64.134;-21.862;2022-10-22T02:51:49;0.60;78.20
72338;DHT22;60294;64.134;-21.862;2022-10-22T02:54:15;0.60;78.00
72338;DHT22;60294;64.134;-21.862;2022-10-22T02:56:41;0.60;78.00
72338;DHT22;60294;64.134;-21.862;2022-10-22T02:59:06;0.70;78.10
72338;DHT22;60294;64.134;-21.862;2022-10-22T03:01:32;0.70;77.90
72338;DHT22;60294;64.134;-21.862;2022-10-22T03:03:58;0.70;78.00
72338;DHT22;60294;64.134;-21.862;2022-10-22T03:06:24;0.70;78.00
72338;DHT22;60294;64.134;-21.862;2022-10-22T03:08:50;0.70;78.20
72338;DHT22;60294;64.134;-21.862;2022-10-22T03:11:16;0.70;78.00
72338;DHT22;60294;64.134;-21.862;2022-10-22T03:13:41;0.70;78.30
72338;DHT22;60294;64.134;-21.862;2022-10-22T03:16:07;0.70;78.00
72338;DHT22;60294;64.134;-21.862;2022-10-22T03:18:33;0.70;78.00
72338;DHT22;60294;64.134;-21.862;2022-10-22T03:23:35;0.80;77.90
72338;DHT22;60294;64.134;-21.862;2022-10-22T03:26:02;0.80;78.00
72338;DHT22;60294;64.134;-21.862;2022-10-22T03:28:28;0.70;78.00
72338;DHT22;60294;64.134;-21.862;2022-10-22T03:30:54;0.70;78.10
72338;DHT22;60294;64.134;-21.862;2022-10-22T03:33:20;0.70;77.90
72338;DHT22;60294;64.134;-21.862;2022-10-22T03:35:46;0.60;78.40
72338;DHT22;60294;64.134;-21.862;2022-10-22T03:38:13;0.60;78.30
72338;DHT22;60294;64.134;-21.862;2022-10-22T03:40:41;0.60;78.50
72338;DHT22;60294;64.134;-21.862;2022-10-22T03:43:07;0.60;78.50
72338;DHT22;60294;64.134;-21.862;2022-10-22T03:45:33;0.60;78.50
72338;DHT22;60294;64.134;-21.862;2022-10-22T03:47:59;0.60;78.30
72338;DHT22;60294;64.134;-21.862;2022-10-22T03:50:24;0.60;78.30
72338;DHT22;60294;64.134;-21.862;2022-10-22T03:52:50;0.60;78.20
72338;DHT22;60294;64.134;-21.862;2022-10-22T03:55:17;0.60;78.10
72338;DHT22;60294;64.134;-21.862;2022-10-22T03:57:43;0.60;77.90
72338;DHT22;60294;64.134;-21.862;2022-10-22T04:00:09;0.60;77.90
72338;DHT22;60294;64.134;-21.862;2022-10-22T04:02:35;0.60;77.80
72338;DHT22;60294;64.134;-21.862;2022-10-22T04:05:01;0.60;77.90
72338;DHT22;60294;64.134;-21.862;2022-10-22T04:07:27;0.60;78.40
72338;DHT22;60294;64.134;-21.862;2022-10-22T04:09:53;0.60;79.00
72338;DHT22;60294;64.134;-21.862;2022-10-22T04:12:18;0.50;78.70
72338;DHT22;60294;64.134;-21.862;2022-10-22T04:14:44;0.50;78.90
72338;DHT22;60294;64.134;-21.862;2022-10-22T04:17:10;0.40;79.20
72338;DHT22;60294;64.134;-21.862;2022-10-22T04:19:36;0.40;79.60
72338;DHT22;60294;64.134;-21.862;2022-10-22T04:22:03;0.40;79.80
72338;DHT22;60294;64.134;-21.862;2022-10-22T04:24:30;0.40;79.70
72338;DHT22;60294;64.134;-21.862;2022-10-22T04:26:56;0.50;79.50
72338;DHT22;60294;64.134;-21.862;2022-10-22T04:29:22;0.50;79.30
72338;DHT22;60294;64.134;-21.862;2022-10-22T04:31:48;0.50;79.10
72338;DHT22;60294;64.134;-21.862;2022-10-22T04:34:14;0.50;79.00
72338;DHT22;60294;64.134;-21.862;2022-10-22T04:36:39;0.50;79.00
72338;DHT22;60294;64.134;-21.862;2022-10-22T04:39:05;0.60;79.00
72338;DHT22;60294;64.134;-21.862;2022-10-22T04:41:36;0.50;78.90
72338;DHT22;60294;64.134;-21.862;2022-10-22T04:44:03;0.50;78.70
72338;DHT22;60294;64.134;-21.862;2022-10-22T04:46:30;0.30;78.90
72338;DHT22;60294;64.134;-21.862;2022-10-22T04:48:56;0.30;79.40
72338;DHT22;60294;64.134;-21.862;2022-10-22T04:51:24;0.30;79.50
72338;DHT22;60294;64.134;-21.862;2022-10-22T04:53:50;0.30;79.40
72338;DHT22;60294;64.134;-21.862;2022-10-22T04:56:18;0.20;79.40
72338;DHT22;60294;64.134;-21.862;2022-10-22T04:58:49;0.30;79.70
72338;DHT22;60294;64.134;-21.862;2022-10-22T05:01:20;0.30;79.70
72338;DHT22;60294;64.134;-21.862;2022-10-22T05:03:48;0.30;79.60
72338;DHT22;60294;64.134;-21.862;2022-10-22T05:06:14;0.40;79.80
72338;DHT22;60294;64.134;-21.862;2022-10-22T05:08:41;0.50;79.80
72338;DHT22;60294;64.134;-21.862;2022-10-22T05:11:16;0.50;79.50
72338;DHT22;60294;64.134;-21.862;2022-10-22T05:13:42;0.60;79.40
72338;DHT22;60294;64.134;-21.862;2022-10-22T05:16:10;0.60;79.30
72338;DHT22;60294;64.134;-21.862;2022-10-22T05:18:37;0.60;78.60
72338;DHT22;60294;64.134;-21.862;2022-10-22T05:21:07;0.50;78.90
72338;DHT22;60294;64.134;-21.862;2022-10-22T05:23:33;0.50;79.10
72338;DHT22;60294;64.134;-21.862;2022-10-22T05:26:06;0.60;79.10
72338;DHT22;60294;64.134;-21.862;2022-10-22T05:28:33;0.60;78.80
72338;DHT22;60294;64.134;-21.862;2022-10-22T05:31:00;0.60;79.00
72338;DHT22;60294;64.134;-21.862;2022-10-22T05:33:28;0.60;79.10
72338;DHT22;60294;64.134;-21.862;2022-10-22T05:35:55;0.60;79.30
72338;DHT22;60294;64.134;-21.862;2022-10-22T05:38:21;0.60;79.50
72338;DHT22;60294;64.134;-21.862;2022-10-22T05:40:47;0.60;79.30
72338;DHT22;60294;64.134;-21.862;2022-10-22T05:43:13;0.70;79.00
72338;DHT22;60294;64.134;-21.862;2022-10-22T05:45:40;0.60;78.60
72338;DHT22;60294;64.134;-21.862;2022-10-22T05:48:07;0.60;78.70
72338;DHT22;60294;64.134;-21.862;2022-10-22T05:50:37;0.60;78.50
72338;DHT22;60294;64.134;-21.862;2022-10-22T05:53:06;0.60;78.70
72338;DHT22;60294;64.134;-21.862;2022-10-22T05:55:36;0.60;78.70
72338;DHT22;60294;64.134;-21.862;2022-10-22T05:58:04;0.60;78.40
72338;DHT22;60294;64.134;-21.862;2022-10-22T06:00:30;0.60;78.30
72338;DHT22;60294;64.134;-21.862;2022-10-22T06:02:59;0.60;78.40
72338;DHT22;60294;64.134;-21.862;2022-10-22T06:05:24;0.60;78.50
72338;DHT22;60294;64.134;-21.862;2022-10-22T06:07:50;0.50;78.90
72338;DHT22;60294;64.134;-21.862;2022-10-22T06:10:18;0.30;79.80
72338;DHT22;60294;64.134;-21.862;2022-10-22T06:12:48;0.30;80.10
72338;DHT22;60294;64.134;-21.862;2022-10-22T06:15:16;0.20;80.30
72338;DHT22;60294;64.134;-21.862;2022-10-22T06:17:43;0.30;80.50
72338;DHT22;60294;64.134;-21.862;2022-10-22T06:20:10;0.20;80.60
72338;DHT22;60294;64.134;-21.862;2022-10-22T06:22:37;0.20;80.70
72338;DHT22;60294;64.134;-21.862;2022-10-22T06:25:04;0.20;81.80
72338;DHT22;60294;64.134;-21.862;2022-10-22T06:27:30;0.40;82.30
72338;DHT22;60294;64.134;-21.862;2022-10-22T06:29:56;0.50;82.10
72338;DHT22;60294;64.134;-21.862;2022-10-22T06:32:22;0.50;81.70
72338;DHT22;60294;64.134;-21.862;2022-10-22T06:34:48;0.40;81.20
72338;DHT22;60294;64.134;-21.862;2022-10-22T06:37:15;0.50;81.60
72338;DHT22;60294;64.134;-21.862;2022-10-22T06:39:42;0.60;81.60
72338;DHT22;60294;64.134;-21.862;2022-10-22T06:42:08;0.70;81.30
72338;DHT22;60294;64.134;-21.862;2022-10-22T06:44:33;0.60;80.70
72338;DHT22;60294;64.134;-21.862;2022-10-22T06:46:59;0.70;80.80
72338;DHT22;60294;64.134;-21.862;2022-10-22T06:49:25;0.70;80.60
72338;DHT22;60294;64.134;-21.862;2022-10-22T06:51:52;0.70;80.50
72338;DHT22;60294;64.134;-21.862;2022-10-22T06:54:20;0.70;80.30
72338;DHT22;60294;64.134;-21.862;2022-10-22T06:56:46;0.70;80.10
72338;DHT22;60294;64.134;-21.862;2022-10-22T06:59:12;0.60;79.90
72338;DHT22;60294;64.134;-21.862;2022-10-22T07:01:38;0.60;80.00
72338;DHT22;60294;64.134;-21.862;2022-10-22T07:04:05;0.60;80.10
72338;DHT22;60294;64.134;-21.862;2022-10-22T07:06:31;0.70;80.00
72338;DHT22;60294;64.134;-21.862;2022-10-22T07:08:58;0.60;79.80
72338;DHT22;60294;64.134;-21.862;2022-10-22T07:11:27;0.60;79.80
72338;DHT22;60294;64.134;-21.862;2022-10-22T07:13:55;0.60;80.10
72338;DHT22;60294;64.134;-21.862;2022-10-22T07:16:21;0.40;79.90
72338;DHT22;60294;64.134;-21.862;2022-10-22T07:18:47;0.40;80.20
72338;DHT22;60294;64.134;-21.862;2022-10-22T07:21:14;0.30;80.10
72338;DHT22;60294;64.134;-21.862;2022-10-22T07:23:41;0.20;80.00
72338;DHT22;60294;64.134;-21.862;2022-10-22T07:26:08;0.10;80.40
72338;DHT22;60294;64.134;-21.862;2022-10-22T07:28:37;0.10;80.90
72338;DHT22;60294;64.134;-21.862;2022-10-22T07:31:06;0.10;81.20
72338;DHT22;60294;64.134;-21.862;2022-10-22T07:33:32;0.00;81.10
72338;DHT22;60294;64.134;-21.862;2022-10-22T07:36:03;0.00;81.40
72338;DHT22;60294;64.134;-21.862;2022-10-22T07:38:29;0.00;81.40
72338;DHT22;60294;64.134;-21.862;2022-10-22T07:40:56;0.00;81.40
72338;DHT22;60294;64.134;-21.862;2022-10-22T07:43:22;0.10;81.40
72338;DHT22;60294;64.134;-21.862;2022-10-22T07:45:48;0.10;81.20
72338;DHT22;60294;64.134;-21.862;2022-10-22T07:48:14;0.10;80.70
72338;DHT22;60294;64.134;-21.862;2022-10-22T07:50:40;0.00;81.10
72338;DHT22;60294;64.134;-21.862;2022-10-22T07:53:06;0.00;81.20
72338;DHT22;60294;64.134;-21.862;2022-10-22T07:55:32;0.10;81.30
72338;DHT22;60294;64.134;-21.862;2022-10-22T07:57:58;0.10;81.10
72338;DHT22;60294;64.134;-21.862;2022-10-22T08:00:24;0.10;81.10
72338;DHT22;60294;64.134;-21.862;2022-10-22T08:02:50;0.20;80.80
72338;DHT22;60294;64.134;-21.862;2022-10-22T08:05:15;0.10;80.40
72338;DHT22;60294;64.134;-21.862;2022-10-22T08:07:42;0.10;80.50
72338;DHT22;60294;64.134;-21.862;2022-10-22T08:10:09;0.30;80.80
72338;DHT22;60294;64.134;-21.862;2022-10-22T08:12:35;0.30;80.50
72338;DHT22;60294;64.134;-21.862;2022-10-22T08:15:02;0.30;80.50
72338;DHT22;60294;64.134;-21.862;2022-10-22T08:17:28;0.30;80.30
72338;DHT22;60294;64.134;-21.862;2022-10-22T08:19:53;0.30;80.60
72338;DHT22;60294;64.134;-21.862;2022-10-22T08:22:19;0.40;80.20
72338;DHT22;60294;64.134;-21.862;2022-10-22T08:24:45;0.40;79.90
72338;DHT22;60294;64.134;-21.862;2022-10-22T08:27:11;0.40;79.80
72338;DHT22;60294;64.134;-21.862;2022-10-22T08:29:37;0.40;79.70
72338;DHT22;60294;64.134;-21.862;2022-10-22T08:32:03;0.40;79.50
72338;DHT22;60294;64.134;-21.862;2022-10-22T08:34:29;0.40;79.50
72338;DHT22;60294;64.134;-21.862;2022-10-22T08:36:58;0.40;79.40
72338;DHT22;60294;64.134;-21.862;2022-10-22T08:39:24;0.40;79.30
72338;DHT22;60294;64.134;-21.862;2022-10-22T08:49:52;0.40;79.20
72338;DHT22;60294;64.134;-21.862;2022-10-22T08:52:19;0.40;79.30
72338;DHT22;60294;64.134;-21.862;2022-10-22T08:54:57;0.50;79.20
72338;DHT22;60294;64.134;-21.862;2022-10-22T08:57:33;0.50;79.20
72338;DHT22;60294;64.134;-21.862;2022-10-22T09:07:54;0.50;79.10
72338;DHT22;60294;64.134;-21.862;2022-10-22T09:10:25;0.50;79.00
72338;DHT22;60294;64.134;-21.862;2022-10-22T09:12:53;0.40;79.00
72338;DHT22;60294;64.134;-21.862;2022-10-22T09:15:19;0.30;79.50
72338;DHT22;60294;64.134;-21.862;2022-10-22T09:18:09;0.40;79.80
72338;DHT22;60294;64.134;-21.862;2022-10-22T09:20:50;0.40;79.70
72338;DHT22;60294;64.134;-21.862;2022-10-22T09:23:25;0.50;79.70
72338;DHT22;60294;64.134;-21.862;2022-10-22T09:25:53;0.50;79.60
72338;DHT22;60294;64.134;-21.862;2022-10-22T09:28:21;0.60;79.50
72338;DHT22;60294;64.134;-21.862;2022-10-22T09:30:47;0.60;79.30
72338;DHT22;60294;64.134;-21.862;2022-10-22T09:33:30;0.70;79.30
72338;DHT22;60294;64.134;-21.862;2022-10-22T09:35:59;0.70;79.10
72338;DHT22;60294;64.134;-21.862;2022-10-22T09:38:32;0.70;79.70
72338;DHT22;60294;64.134;-21.862;2022-10-22T09:41:00;0.80;79.60
72338;DHT22;60294;64.134;-21.862;2022-10-22T09:43:28;0.90;79.20
72338;DHT22;60294;64.134;-21.862;2022-10-22T09:46:02;0.90;79.00
72338;DHT22;60294;64.134;-21.862;2022-10-22T09:48:40;1.00;78.70
72338;DHT22;60294;64.134;-21.862;2022-10-22T09:54:00;1.10;78.40
72338;DHT22;60294;64.134;-21.862;2022-10-22T09:56:50;1.10;78.30
72338;DHT22;60294;64.134;-21.862;2022-10-22T09:59:16;1.10;78.10
72338;DHT22;60294;64.134;-21.862;2022-10-22T10:01:43;1.20;78.00
72338;DHT22;60294;64.134;-21.862;2022-10-22T10:04:12;1.10;78.10
72338;DHT22;60294;64.134;-21.862;2022-10-22T10:06:41;1.20;78.40
72338;DHT22;60294;64.134;-21.862;2022-10-22T10:09:23;1.30;78.30
72338;DHT22;60294;64.134;-21.862;2022-10-22T10:11:58;1.50;78.00
72338;DHT22;60294;64.134;-21.862;2022-10-22T10:14:44;1.60;77.60
72338;DHT22;60294;64.134;-21.862;2022-10-22T10:25:35;2.10;75.70
72338;DHT22;60294;64.134;-21.862;2022-10-22T10:31:16;2.10;75.10
72338;DHT22;60294;64.134;-21.862;2022-10-22T10:36:51;2.20;75.00
72338;DHT22;60294;64.134;-21.862;2022-10-22T10:45:07;2.30;74.80
72338;DHT22;60294;64.134;-21.862;2022-10-22T10:50:19;2.30;74.60
72338;DHT22;60294;64.134;-21.862;2022-10-22T11:06:38;2.20;74.90
72338;DHT22;60294;64.134;-21.862;2022-10-22T11:11:48;2.40;74.90
72338;DHT22;60294;64.134;-21.862;2022-10-22T11:19:37;2.10;74.90
72338;DHT22;60294;64.134;-21.862;2022-10-22T11:25:05;2.10;76.20
72338;DHT22;60294;64.134;-21.862;2022-10-22T11:27:44;2.10;76.60
72338;DHT22;60294;64.134;-21.862;2022-10-22T11:30:22;2.20;76.60
72338;DHT22;60294;64.134;-21.862;2022-10-22T11:32:54;2.30;76.50
72338;DHT22;60294;64.134;-21.862;2022-10-22T11:35:27;2.30;76.20
72338;DHT22;60294;64.134;-21.862;2022-10-22T11:37:56;2.40;76.00
72338;DHT22;60294;64.134;-21.862;2022-10-22T11:43:03;2.70;76.20
72338;DHT22;60294;64.134;-21.862;2022-10-22T11:45:37;2.80;76.10
72338;DHT22;60294;64.134;-21.862;2022-10-22T11:48:15;3.00;75.90
72338;DHT22;60294;64.134;-21.862;2022-10-22T11:50:59;3.10;75.40
72338;DHT22;60294;64.134;-21.862;2022-10-22T11:53:33;3.10;75.10
72338;DHT22;60294;64.134;-21.862;2022-10-22T12:03:43;3.60;74.10
72338;DHT22;60294;64.134;-21.862;2022-10-22T12:11:40;4.00;73.00
72338;DHT22;60294;64.134;-21.862;2022-10-22T12:14:20;4.10;72.40
72338;DHT22;60294;64.134;-21.862;2022-10-22T12:19:31;4.30;71.40
72338;DHT22;60294;64.134;-21.862;2022-10-22T12:24:48;4.60;70.50
72338;DHT22;60294;64.134;-21.862;2022-10-22T12:27:35;4.60;70.10
72338;DHT22;60294;64.134;-21.862;2022-10-22T12:30:09;4.60;69.60
72338;DHT22;60294;64.134;-21.862;2022-10-22T12:32:41;4.70;69.30
72338;DHT22;60294;64.134;-21.862;2022-10-22T12:35:13;4.80;68.80
72338;DHT22;60294;64.134;-21.862;2022-10-22T12:37:40;4.90;69.00
72338;DHT22;60294;64.134;-21.862;2022-10-22T12:40:35;5.00;68.70
72338;DHT22;60294;64.134;-21.862;2022-10-22T12:43:09;5.10;68.70
72338;DHT22;60294;64.134;-21.862;2022-10-22T12:45:36;5.10;68.00
72338;DHT22;60294;64.134;-21.862;2022-10-22T12:48:13;5.20;67.60
72338;DHT22;60294;64.134;-21.862;2022-10-22T12:50:42;5.30;67.60
72338;DHT22;60294;64.134;-21.862;2022-10-22T12:53:18;5.40;67.60
72338;DHT22;60294;64.134;-21.862;2022-10-22T12:55:49;5.50;67.30
72338;DHT22;60294;64.134;-21.862;2022-10-22T12:58:18;5.60;67.30
72338;DHT22;60294;64.134;-21.862;2022-10-22T13:00:46;5.70;66.70
72338;DHT22;60294;64.134;-21.862;2022-10-22T13:03:25;5.70;66.60
72338;DHT22;60294;64.134;-21.862;2022-10-22T13:05:51;5.90;66.80
72338;DHT22;60294;64.134;-21.862;2022-10-22T13:08:20;5.90;66.60
72338;DHT22;60294;64.134;-21.862;2022-10-22T13:10:51;5.90;66.40
72338;DHT22;60294;64.134;-21.862;2022-10-22T13:13:41;6.00;66.50
72338;DHT22;60294;64.134;-21.862;2022-10-22T13:18:40;6.20;65.90
72338;DHT22;60294;64.134;-21.862;2022-10-22T13:23:56;6.50;64.80
72338;DHT22;60294;64.134;-21.862;2022-10-22T13:26:23;6.90;65.10
72338;DHT22;60294;64.134;-21.862;2022-10-22T13:28:52;6.90;63.50
72338;DHT22;60294;64.134;-21.862;2022-10-22T13:31:24;7.00;62.70
72338;DHT22;60294;64.134;-21.862;2022-10-22T13:33:54;7.10;62.00
72338;DHT22;60294;64.134;-21.862;2022-10-22T13:36:21;7.20;61.90
72338;DHT22;60294;64.134;-21.862;2022-10-22T13:38:47;7.60;62.40
72338;DHT22;60294;64.134;-21.862;2022-10-22T13:43:45;8.40;60.20
72338;DHT22;60294;64.134;-21.862;2022-10-22T13:46:10;8.80;59.90
72338;DHT22;60294;64.134;-21.862;2022-10-22T13:48:37;9.10;58.70
72338;DHT22;60294;64.134;-21.862;2022-10-22T13:51:06;9.10;57.20
72338;DHT22;60294;64.134;-21.862;2022-10-22T13:53:35;9.10;56.90
72338;DHT22;60294;64.134;-21.862;2022-10-22T13:56:01;9.40;57.00
72338;DHT22;60294;64.134;-21.862;2022-10-22T13:58:30;9.50;56.20
72338;DHT22;60294;64.134;-21.862;2022-10-22T14:00:58;9.80;55.70
72338;DHT22;60294;64.134;-21.862;2022-10-22T14:03:32;9.90;54.70
72338;DHT22;60294;64.134;-21.862;2022-10-22T14:05:59;10.20;54.50
72338;DHT22;60294;64.134;-21.862;2022-10-22T14:08:26;10.30;52.60
72338;DHT22;60294;64.134;-21.862;2022-10-22T14:10:53;10.40;54.60
72338;DHT22;60294;64.134;-21.862;2022-10-22T14:13:20;10.50;53.00
72338;DHT22;60294;64.134;-21.862;2022-10-22T14:15:49;10.80;52.50
72338;DHT22;60294;64.134;-21.862;2022-10-22T14:18:24;10.90;52.20
72338;DHT22;60294;64.134;-21.862;2022-10-22T14:20:55;11.10;51.10
72338;DHT22;60294;64.134;-21.862;2022-10-22T14:23:23;11.50;50.90
72338;DHT22;60294;64.134;-21.862;2022-10-22T14:25:49;11.60;50.10
72338;DHT22;60294;64.134;-21.862;2022-10-22T14:28:15;11.40;49.80
72338;DHT22;60294;64.134;-21.862;2022-10-22T14:30:42;11.60;49.30
72338;DHT22;60294;64.134;-21.862;2022-10-22T14:35:51;11.70;49.30
72338;DHT22;60294;64.134;-21.862;2022-10-22T14:38:17;11.40;49.10
72338;DHT22;60294;64.134;-21.862;2022-10-22T14:40:44;11.30;50.10
72338;DHT22;60294;64.134;-21.862;2022-10-22T14:43:29;11.10;51.40
72338;DHT22;60294;64.134;-21.862;2022-10-22T14:45:56;10.90;52.10
72338;DHT22;60294;64.134;-21.862;2022-10-22T14:48:23;10.80;52.60
72338;DHT22;60294;64.134;-21.862;2022-10-22T14:50:49;10.60;53.50
72338;DHT22;60294;64.134;-21.862;2022-10-22T14:53:15;10.30;55.20
72338;DHT22;60294;64.134;-21.862;2022-10-22T14:55:44;10.40;55.40
72338;DHT22;60294;64.134;-21.862;2022-10-22T14:58:12;10.50;55.70
72338;DHT22;60294;64.134;-21.862;2022-10-22T15:00:40;10.30;55.80
72338;DHT22;60294;64.134;-21.862;2022-10-22T15:03:06;10.20;56.50
72338;DHT22;60294;64.134;-21.862;2022-10-22T15:05:31;9.60;57.30
72338;DHT22;60294;64.134;-21.862;2022-10-22T15:07:58;9.90;58.40
72338;DHT22;60294;64.134;-21.862;2022-10-22T15:10:25;9.70;57.40
72338;DHT22;60294;64.134;-21.862;2022-10-22T15:12:51;9.70;57.50
72338;DHT22;60294;64.134;-21.862;2022-10-22T15:15:17;9.30;58.20
72338;DHT22;60294;64.134;-21.862;2022-10-22T15:17:43;9.30;58.00
72338;DHT22;60294;64.134;-21.862;2022-10-22T15:20:09;8.80;59.70
72338;DHT22;60294;64.134;-21.862;2022-10-22T15:22:35;8.60;60.30
72338;DHT22;60294;64.134;-21.862;2022-10-22T15:25:07;8.50;60.30
72338;DHT22;60294;64.134;-21.862;2022-10-22T15:27:34;8.60;59.30
72338;DHT22;60294;64.134;-21.862;2022-10-22T15:30:00;8.60;59.00
72338;DHT22;60294;64.134;-21.862;2022-10-22T15:32:26;8.40;59.30
72338;DHT22;60294;64.134;-21.862;2022-10-22T15:34:54;8.20;59.50
72338;DHT22;60294;64.134;-21.862;2022-10-22T15:37:20;8.10;60.20
72338;DHT22;60294;64.134;-21.862;2022-10-22T15:39:47;8.00;60.50
72338;DHT22;60294;64.134;-21.862;2022-10-22T15:42:13;7.80;61.00
72338;DHT22;60294;64.134;-21.862;2022-10-22T15:44:39;7.70;61.60
72338;DHT22;60294;64.134;-21.862;2022-10-22T15:47:06;7.60;61.70
72338;DHT22;60294;64.134;-21.862;2022-10-22T15:49:34;7.50;62.30
72338;DHT22;60294;64.134;-21.862;2022-10-22T15:52:00;7.50;62.40
72338;DHT22;60294;64.134;-21.862;2022-10-22T15:54:28;7.40;63.10
72338;DHT22;60294;64.134;-21.862;2022-10-22T15:56:55;7.40;63.30
72338;DHT22;60294;64.134;-21.862;2022-10-22T15:59:22;7.30;63.60
72338;DHT22;60294;64.134;-21.862;2022-10-22T16:01:47;7.30;64.10
72338;DHT22;60294;64.134;-21.862;2022-10-22T16:04:14;7.20;64.20
72338;DHT22;60294;64.134;-21.862;2022-10-22T16:06:45;7.30;64.50
72338;DHT22;60294;64.134;-21.862;2022-10-22T16:09:16;7.10;64.80
72338;DHT22;60294;64.134;-21.862;2022-10-22T16:11:42;7.10;65.20
72338;DHT22;60294;64.134;-21.862;2022-10-22T16:14:11;7.00;65.30
72338;DHT22;60294;64.134;-21.862;2022-10-22T16:16:37;6.90;65.60
72338;DHT22;60294;64.134;-21.862;2022-10-22T16:19:08;6.90;65.80
72338;DHT22;60294;64.134;-21.862;2022-10-22T16:21:35;6.90;66.00
72338;DHT22;60294;64.134;-21.862;2022-10-22T16:24:00;6.90;66.10
72338;DHT22;60294;64.134;-21.862;2022-10-22T16:26:26;6.80;66.40
72338;DHT22;60294;64.134;-21.862;2022-10-22T16:28:52;6.70;66.90
72338;DHT22;60294;64.134;-21.862;2022-10-22T16:31:18;6.70;66.80
72338;DHT22;60294;64.134;-21.862;2022-10-22T16:33:46;6.60;67.30
72338;DHT22;60294;64.134;-21.862;2022-10-22T16:36:14;6.60;67.80
72338;DHT22;60294;64.134;-21.862;2022-10-22T16:38:42;6.50;68.40
72338;DHT22;60294;64.134;-21.862;2022-10-22T16:43:43;6.50;68.60
72338;DHT22;60294;64.134;-21.862;2022-10-22T16:46:10;6.50;68.80
72338;DHT22;60294;64.134;-21.862;2022-10-22T16:48:36;6.40;69.00
72338;DHT22;60294;64.134;-21.862;2022-10-22T16:51:09;6.40;69.20
72338;DHT22;60294;64.134;-21.862;2022-10-22T16:53:37;6.20;69.60
72338;DHT22;60294;64.134;-21.862;2022-10-22T16:56:03;6.10;70.00
72338;DHT22;60294;64.134;-21.862;2022-10-22T16:58:29;6.10;70.20
72338;DHT22;60294;64.134;-21.862;2022-10-22T17:00:54;6.00;70.50
72338;DHT22;60294;64.134;-21.862;2022-10-22T17:03:20;6.00;70.40
72338;DHT22;60294;64.134;-21.862;2022-10-22T17:05:46;5.90;71.00
72338;DHT22;60294;64.134;-21.862;2022-10-22T17:08:12;5.90;70.70
72338;DHT22;60294;64.134;-21.862;2022-10-22T17:10:38;5.80;71.00
72338;DHT22;60294;64.134;-21.862;2022-10-22T17:13:06;5.70;71.50
72338;DHT22;60294;64.134;-21.862;2022-10-22T17:15:32;5.60;71.80
72338;DHT22;60294;64.134;-21.862;2022-10-22T17:18:01;5.60;72.20
72338;DHT22;60294;64.134;-21.862;2022-10-22T17:20:28;5.50;72.50
72338;DHT22;60294;64.134;-21.862;2022-10-22T17:22:54;5.40;72.60
72338;DHT22;60294;64.134;-21.862;2022-10-22T17:25:31;5.40;73.00
72338;DHT22;60294;64.134;-21.862;2022-10-22T17:27:59;5.20;73.50
72338;DHT22;60294;64.134;-21.862;2022-10-22T17:30:25;5.10;74.00
72338;DHT22;60294;64.134;-21.862;2022-10-22T17:32:53;5.00;74.30
72338;DHT22;60294;64.134;-21.862;2022-10-22T17:35:19;4.90;74.30